createdAt,value
2024-05-09T00:00:35.796Z,2.30
2024-05-09T00:03:10.098Z,2.20
2024-05-09T00:05:41.487Z,2.25
2024-05-09T00:08:09.042Z,2.10
2024-05-09T00:10:38.101Z,2.40
2024-05-09T00:13:07.130Z,2.17
2024-05-09T00:15:34.342Z,2.30
2024-05-09T00:18:01.406Z,2.40
2024-05-09T00:20:33.542Z,2.25
2024-05-09T00:23:06.259Z,2.60
2024-05-09T00:25:32.935Z,2.58
2024-05-09T00:27:59.169Z,2.55
2024-05-09T00:30:33.225Z,2.40
2024-05-09T00:33:03.212Z,2.40
2024-05-09T00:35:30.031Z,2.58
2024-05-09T00:37:56.620Z,2.55
2024-05-09T00:40:34.725Z,2.90
2024-05-09T00:43:05.541Z,2.65
2024-05-09T00:45:32.957Z,2.72
2024-05-09T00:48:00.627Z,2.80
2024-05-09T00:50:35.345Z,2.87
2024-05-09T00:53:07.564Z,3.10
2024-05-09T00:55:35.166Z,2.87
2024-05-09T00:58:02.326Z,3.17
2024-05-09T01:00:35.980Z,3.10
2024-05-09T01:03:06.581Z,3.05
2024-05-09T01:05:34.180Z,2.97
2024-05-09T01:08:00.964Z,3.10
2024-05-09T01:10:33.763Z,2.80
2024-05-09T01:13:06.938Z,3.10
2024-05-09T01:15:33.994Z,3.12
2024-05-09T01:18:01.398Z,3.10
2024-05-09T01:20:37.401Z,3.30
2024-05-09T01:23:08.896Z,3.20
2024-05-09T01:25:35.838Z,3.22
2024-05-09T01:28:02.374Z,3.05
2024-05-09T01:30:34.429Z,3.10
2024-05-09T01:33:03.709Z,2.90
2024-05-09T01:35:30.721Z,2.87
2024-05-09T01:37:57.571Z,2.70
2024-05-09T01:40:33.461Z,2.70
2024-05-09T01:43:04.768Z,2.70
2024-05-09T01:45:31.611Z,2.80
2024-05-09T01:47:58.230Z,2.50
2024-05-09T01:50:36.196Z,2.60
2024-05-09T01:53:06.661Z,2.30
2024-05-09T01:55:32.988Z,2.20
2024-05-09T01:57:59.242Z,2.20
2024-05-09T02:00:34.519Z,2.20
2024-05-09T02:03:09.058Z,2.30
2024-05-09T02:05:35.725Z,2.40
2024-05-09T02:08:02.299Z,2.28
2024-05-09T02:10:32.593Z,2.30
2024-05-09T02:12:59.846Z,2.20
2024-05-09T02:15:26.384Z,2.20
2024-05-09T02:17:53.338Z,2.20
2024-05-09T02:20:30.008Z,2.10
2024-05-09T02:23:03.452Z,2.12
2024-05-09T02:25:29.801Z,2.12
2024-05-09T02:27:56.057Z,2.10
2024-05-09T02:30:30.117Z,2.03
2024-05-09T02:33:05.292Z,2.10
2024-05-09T02:35:31.885Z,2.10
2024-05-09T02:37:58.162Z,2.10
2024-05-09T02:40:33.241Z,2.20
2024-05-09T02:43:04.179Z,2.10
2024-05-09T02:45:30.567Z,2.10
2024-05-09T02:47:57.547Z,2.40
2024-05-09T02:50:33.018Z,2.20
2024-05-09T02:53:04.527Z,2.20
2024-05-09T02:55:31.268Z,2.30
2024-05-09T02:57:57.718Z,2.10
2024-05-09T03:00:30.026Z,2.20
2024-05-09T03:03:05.358Z,2.10
2024-05-09T03:05:32.328Z,2.05
2024-05-09T03:07:58.756Z,2.20
2024-05-09T03:10:28.648Z,2.20
2024-05-09T03:12:55.623Z,2.40
2024-05-09T03:15:22.261Z,2.15
2024-05-09T03:17:48.742Z,1.90
2024-05-09T03:20:23.193Z,2.20
2024-05-09T03:22:52.688Z,2.10
2024-05-09T03:25:20.608Z,2.25
2024-05-09T03:27:47.380Z,2.30
2024-05-09T03:30:25.953Z,2.40
2024-05-09T03:33:01.534Z,2.40
2024-05-09T03:35:28.371Z,2.10
2024-05-09T03:37:54.820Z,2.40
2024-05-09T03:40:26.313Z,2.20
2024-05-09T03:42:55.276Z,2.05
2024-05-09T03:45:21.926Z,2.10
2024-05-09T03:47:48.412Z,2.10
2024-05-09T03:50:22.152Z,2.30
2024-05-09T03:52:52.570Z,2.40
2024-05-09T03:55:18.960Z,2.50
2024-05-09T03:57:45.313Z,2.40
2024-05-09T04:00:18.101Z,2.70
2024-05-09T04:02:52.608Z,2.50
2024-05-09T04:05:19.560Z,2.80
2024-05-09T04:07:46.067Z,3.53
2024-05-09T04:10:21.048Z,2.62
2024-05-09T04:12:54.531Z,2.55
2024-05-09T04:15:21.029Z,2.70
2024-05-09T04:17:50.795Z,3.00
2024-05-09T04:20:28.763Z,2.50
2024-05-09T04:23:02.879Z,2.35
2024-05-09T04:25:30.106Z,2.30
2024-05-09T04:27:56.543Z,2.35
2024-05-09T04:30:33.683Z,2.70
2024-05-09T04:33:04.970Z,2.40
2024-05-09T04:35:31.551Z,2.20
2024-05-09T04:37:58.097Z,2.25
2024-05-09T04:40:31.611Z,2.47
2024-05-09T04:43:01.286Z,2.60
2024-05-09T04:45:27.664Z,2.60
2024-05-09T04:47:54.096Z,3.00
2024-05-09T04:50:29.372Z,2.40
2024-05-09T04:53:02.295Z,2.78
2024-05-09T04:55:28.669Z,2.70
2024-05-09T04:57:55.002Z,2.62
2024-05-09T05:00:28.849Z,2.67
2024-05-09T05:03:05.035Z,2.75
2024-05-09T05:05:31.618Z,2.80
2024-05-09T05:07:58.046Z,2.70
2024-05-09T05:10:33.018Z,2.53
2024-05-09T05:13:22.467Z,2.37
2024-05-09T05:15:51.340Z,2.25
2024-05-09T05:18:17.934Z,2.20
2024-05-09T05:20:45.314Z,2.20
2024-05-09T05:23:15.608Z,2.20
2024-05-09T05:25:42.460Z,2.20
2024-05-09T05:28:08.917Z,2.40
2024-05-09T05:30:36.878Z,2.22
2024-05-09T05:33:04.334Z,2.30
2024-05-09T05:35:30.762Z,2.22
2024-05-09T05:37:57.243Z,2.40
2024-05-09T05:40:32.238Z,2.35
2024-05-09T05:43:03.544Z,2.37
2024-05-09T05:45:29.803Z,2.40
2024-05-09T05:47:56.312Z,2.40
2024-05-09T05:50:28.021Z,2.28
2024-05-09T05:53:01.533Z,2.40
2024-05-09T05:55:27.827Z,2.30
2024-05-09T05:57:54.100Z,2.40
2024-05-09T06:00:29.275Z,2.40
2024-05-09T06:03:02.098Z,2.30
2024-05-09T06:05:28.782Z,2.55
2024-05-09T06:07:55.273Z,2.60
2024-05-09T06:10:25.945Z,2.45
2024-05-09T06:12:56.896Z,2.37
2024-05-09T06:15:23.425Z,2.58
2024-05-09T06:17:49.980Z,2.60
2024-05-09T06:20:23.656Z,2.85
2024-05-09T06:22:57.683Z,2.58
2024-05-09T06:25:23.997Z,3.22
2024-05-09T06:27:50.336Z,3.03
2024-05-09T06:30:25.767Z,2.85
2024-05-09T06:32:57.372Z,3.00
2024-05-09T06:35:24.418Z,3.10
2024-05-09T06:37:50.794Z,3.05
2024-05-09T06:40:21.441Z,3.20
2024-05-09T06:42:53.378Z,3.03
2024-05-09T06:45:19.728Z,2.58
2024-05-09T06:47:46.207Z,2.40
2024-05-09T06:50:20.340Z,2.40
2024-05-09T06:52:50.556Z,2.40
2024-05-09T06:55:16.938Z,2.67
2024-05-09T06:57:43.313Z,2.72
2024-05-09T07:00:15.636Z,3.00
2024-05-09T07:02:45.738Z,3.47
2024-05-09T07:05:12.484Z,4.87
2024-05-09T07:07:39.025Z,4.90
2024-05-09T07:10:07.802Z,5.35
2024-05-09T07:12:36.347Z,6.97
2024-05-09T07:15:02.968Z,6.50
2024-05-09T07:17:29.839Z,3.17
2024-05-09T07:19:56.283Z,3.20
2024-05-09T07:22:24.886Z,3.10
2024-05-09T07:24:54.089Z,3.70
2024-05-09T07:27:20.414Z,3.33
2024-05-09T07:29:46.823Z,2.70
2024-05-09T07:32:13.433Z,2.60
2024-05-09T07:34:40.796Z,3.80
2024-05-09T07:37:11.983Z,2.40
2024-05-09T07:39:39.088Z,2.75
2024-05-09T07:42:05.378Z,2.80
2024-05-09T07:44:32.093Z,2.80
2024-05-09T07:53:22.008Z,3.30
2024-05-09T07:56:06.645Z,2.90
2024-05-09T07:58:33.111Z,3.35
2024-05-09T08:00:59.437Z,2.80
2024-05-09T08:03:26.110Z,2.83
2024-05-09T08:05:53.705Z,5.68
2024-05-09T08:08:20.131Z,5.40
2024-05-09T08:10:46.611Z,6.22
2024-05-09T08:13:13.007Z,3.62
2024-05-09T08:15:39.438Z,5.20
2024-05-09T08:18:09.313Z,5.30
2024-05-09T08:20:38.691Z,4.68
2024-05-09T08:23:05.263Z,4.00
2024-05-09T08:25:31.660Z,4.82
2024-05-09T08:27:58.146Z,4.75
2024-05-09T08:30:32.522Z,4.55
2024-05-09T08:33:04.181Z,3.60
2024-05-09T08:35:30.747Z,3.80
2024-05-09T08:37:57.315Z,4.40
2024-05-09T08:40:30.881Z,4.00
2024-05-09T08:43:01.536Z,3.40
2024-05-09T08:45:27.993Z,3.80
2024-05-09T08:47:54.396Z,4.15
2024-05-09T08:50:31.466Z,4.07
2024-05-09T08:53:04.384Z,3.90
2024-05-09T08:55:30.795Z,3.30
2024-05-09T08:57:57.321Z,3.47
2024-05-09T09:00:33.718Z,3.30
2024-05-09T09:03:05.104Z,3.47
2024-05-09T09:05:32.229Z,3.20
2024-05-09T09:07:58.850Z,3.22
2024-05-09T09:10:31.709Z,3.30
2024-05-09T09:13:03.011Z,3.22
2024-05-09T09:15:30.201Z,3.17
2024-05-09T09:18:00.134Z,3.60
2024-05-09T09:20:34.116Z,3.45
2024-05-09T09:23:03.373Z,3.20
2024-05-09T09:25:29.894Z,3.60
2024-05-09T09:27:57.622Z,2.80
2024-05-09T09:30:34.603Z,2.80
2024-05-09T09:33:05.354Z,2.55
2024-05-09T09:35:32.128Z,2.80
2024-05-09T09:38:01.966Z,2.80
2024-05-09T09:40:39.129Z,2.90
2024-05-09T09:43:13.188Z,3.22
2024-05-09T09:45:39.668Z,2.80
2024-05-09T09:48:07.204Z,2.72
2024-05-09T09:50:35.128Z,2.70
2024-05-09T09:53:02.743Z,2.55
2024-05-09T09:55:29.177Z,2.50
2024-05-09T09:57:55.777Z,2.60
2024-05-09T10:00:27.415Z,2.30
2024-05-09T10:02:58.891Z,2.42
2024-05-09T10:05:25.779Z,2.50
2024-05-09T10:07:52.480Z,2.60
2024-05-09T10:13:07.318Z,3.05
2024-05-09T10:15:52.817Z,2.95
2024-05-09T10:18:24.776Z,3.10
2024-05-09T10:20:53.992Z,2.92
2024-05-09T10:23:24.849Z,3.20
2024-05-09T10:25:58.539Z,3.67
2024-05-09T10:28:26.314Z,3.40
2024-05-09T10:31:12.443Z,3.30
2024-05-09T10:33:39.963Z,2.85
2024-05-09T10:36:19.958Z,2.37
2024-05-09T10:38:47.553Z,3.00
2024-05-09T10:41:13.894Z,3.20
2024-05-09T10:43:40.595Z,3.70
2024-05-09T10:46:07.212Z,3.20
2024-05-09T10:48:34.021Z,3.10
2024-05-09T10:51:00.643Z,3.30
2024-05-09T10:53:26.921Z,3.00
2024-05-09T10:55:59.987Z,3.05
2024-05-09T10:58:26.706Z,3.80
2024-05-09T11:00:57.070Z,6.05
2024-05-09T11:03:24.297Z,5.65
2024-05-09T11:05:51.718Z,4.80
2024-05-09T11:08:21.336Z,4.07
2024-05-09T11:10:52.718Z,3.10
2024-05-09T11:13:35.446Z,3.60
2024-05-09T11:16:02.142Z,3.20
2024-05-09T11:18:32.150Z,3.05
2024-05-09T11:21:01.860Z,3.00
2024-05-09T11:23:31.370Z,3.40
2024-05-09T11:25:58.098Z,3.20
2024-05-09T11:28:26.145Z,2.95
2024-05-09T11:30:52.555Z,3.30
2024-05-09T11:33:19.017Z,3.50
2024-05-09T11:35:46.165Z,3.60
2024-05-09T11:38:12.841Z,3.60
2024-05-09T11:40:39.336Z,4.72
2024-05-09T11:43:05.989Z,4.20
2024-05-09T11:45:32.561Z,4.68
2024-05-09T11:47:59.326Z,5.20
2024-05-09T11:50:32.617Z,4.97
2024-05-09T11:53:01.767Z,4.25
2024-05-09T11:55:28.676Z,4.35
2024-05-09T11:57:55.181Z,5.35
2024-05-09T12:00:29.506Z,6.68
2024-05-09T12:03:03.971Z,6.07
2024-05-09T12:05:31.013Z,6.10
2024-05-09T12:07:57.456Z,4.70
2024-05-09T12:12:53.430Z,4.60
2024-05-09T12:15:19.824Z,4.70
2024-05-09T12:17:49.486Z,5.53
2024-05-09T12:20:25.044Z,4.32
2024-05-09T12:22:55.096Z,3.33
2024-05-09T12:25:21.461Z,3.37
2024-05-09T12:27:47.757Z,3.25
2024-05-09T12:30:20.815Z,3.20
2024-05-09T12:32:55.171Z,2.97
2024-05-09T12:35:21.802Z,3.20
2024-05-09T12:37:48.228Z,4.40
2024-05-09T12:40:22.928Z,4.25
2024-05-09T12:42:57.714Z,4.68
2024-05-09T12:45:24.113Z,4.12
2024-05-09T12:47:50.522Z,3.37
2024-05-09T12:50:24.992Z,3.47
2024-05-09T12:52:57.804Z,3.30
2024-05-09T12:55:24.244Z,3.30
2024-05-09T12:57:50.763Z,3.00
2024-05-09T13:00:23.827Z,2.80
2024-05-09T13:02:54.689Z,2.70
2024-05-09T13:05:21.095Z,3.03
2024-05-09T13:07:47.608Z,2.87
2024-05-09T13:10:19.833Z,2.80
2024-05-09T13:12:49.600Z,2.90
2024-05-09T13:15:15.921Z,3.10
2024-05-09T13:17:42.322Z,3.30
2024-05-09T13:20:14.909Z,3.55
2024-05-09T13:22:45.476Z,3.50
2024-05-09T13:25:12.478Z,3.42
2024-05-09T13:27:38.937Z,3.75
2024-05-09T13:30:11.861Z,3.50
2024-05-09T13:32:41.147Z,3.40
2024-05-09T13:35:07.597Z,3.60
2024-05-09T13:37:33.849Z,3.92
2024-05-09T13:40:00.427Z,3.50
2024-05-09T13:42:26.942Z,3.50
2024-05-09T13:44:53.500Z,3.30
2024-05-09T13:47:20.010Z,3.50
2024-05-09T13:49:46.684Z,3.40
2024-05-09T13:52:13.239Z,3.30
2024-05-09T13:54:39.511Z,3.47
2024-05-09T13:57:05.776Z,3.58
2024-05-09T13:59:32.176Z,3.40
2024-05-09T14:01:58.499Z,3.35
2024-05-09T14:04:25.513Z,3.58
2024-05-09T14:06:52.149Z,3.47
2024-05-09T14:09:18.514Z,3.10
2024-05-09T14:11:44.846Z,3.72
2024-05-09T14:14:11.225Z,4.50
2024-05-09T14:16:38.394Z,4.22
2024-05-09T14:19:04.995Z,5.32
2024-05-09T14:21:31.428Z,5.40
2024-05-09T14:24:00.419Z,3.97
2024-05-09T14:26:27.019Z,4.30
2024-05-09T14:28:53.372Z,4.90
2024-05-09T14:31:19.904Z,4.55
2024-05-09T14:33:46.357Z,3.90
2024-05-09T14:36:12.817Z,3.97
2024-05-09T14:38:39.107Z,4.20
2024-05-09T14:41:07.105Z,5.12
2024-05-09T14:43:33.657Z,4.18
2024-05-09T14:46:00.027Z,4.07
2024-05-09T14:48:26.481Z,3.60
2024-05-09T14:50:53.189Z,3.50
2024-05-09T14:53:19.625Z,3.33
2024-05-09T14:55:46.079Z,3.30
2024-05-09T14:58:13.449Z,3.28
2024-05-09T15:00:44.929Z,3.00
2024-05-09T15:03:14.807Z,2.90
2024-05-09T15:05:41.141Z,3.30
2024-05-09T15:08:07.884Z,3.17
2024-05-09T15:10:36.328Z,3.42
2024-05-09T15:13:04.227Z,3.40
2024-05-09T15:15:30.928Z,3.58
2024-05-09T15:17:57.552Z,3.40
2024-05-09T15:20:30.741Z,3.80
2024-05-09T15:23:01.601Z,3.55
2024-05-09T15:25:28.083Z,3.75
2024-05-09T15:27:54.543Z,3.08
2024-05-09T15:30:27.585Z,4.00
2024-05-09T15:32:56.657Z,3.78
2024-05-09T15:35:23.182Z,4.43
2024-05-09T15:37:49.600Z,3.53
2024-05-09T15:40:26.005Z,3.40
2024-05-09T15:43:01.582Z,3.42
2024-05-09T15:45:30.755Z,3.30
2024-05-09T15:47:57.603Z,3.20
2024-05-09T15:50:32.829Z,3.08
2024-05-09T15:53:04.854Z,3.00
2024-05-09T15:55:32.930Z,3.08
2024-05-09T15:58:00.014Z,3.28
2024-05-09T16:00:36.064Z,3.35
2024-05-09T16:03:06.575Z,3.60
2024-05-09T16:05:33.374Z,3.70
2024-05-09T16:08:00.108Z,3.30
2024-05-09T16:10:32.285Z,3.15
2024-05-09T16:13:00.307Z,3.30
2024-05-09T16:15:26.715Z,3.25
2024-05-09T16:17:53.344Z,2.97
2024-05-09T16:20:33.143Z,3.00
2024-05-09T16:23:05.059Z,3.15
2024-05-09T16:25:31.496Z,3.00
2024-05-09T16:27:57.866Z,3.35
2024-05-09T16:30:31.561Z,3.00
2024-05-09T16:33:01.872Z,3.10
2024-05-09T16:35:28.476Z,2.87
2024-05-09T16:37:54.784Z,2.70
2024-05-09T16:40:29.657Z,2.80
2024-05-09T16:43:03.423Z,2.80
2024-05-09T16:45:29.962Z,2.90
2024-05-09T16:47:56.542Z,2.50
2024-05-09T16:50:29.214Z,2.30
2024-05-09T16:52:59.095Z,2.40
2024-05-09T16:55:25.621Z,2.42
2024-05-09T16:57:52.017Z,2.40
2024-05-09T17:00:26.722Z,2.55
2024-05-09T17:03:03.194Z,2.42
2024-05-09T17:05:30.030Z,2.40
2024-05-09T17:07:56.542Z,2.58
2024-05-09T17:10:29.652Z,2.80
2024-05-09T17:12:59.647Z,2.60
2024-05-09T17:15:26.074Z,2.50
2024-05-09T17:17:52.352Z,2.40
2024-05-09T17:20:28.983Z,2.40
2024-05-09T17:22:59.904Z,2.70
2024-05-09T17:25:26.265Z,2.72
2024-05-09T17:27:52.602Z,3.20
2024-05-09T17:30:28.548Z,3.10
2024-05-09T17:32:59.237Z,3.15
2024-05-09T17:35:25.695Z,3.08
2024-05-09T17:37:52.018Z,2.70
2024-05-09T17:40:27.126Z,2.42
2024-05-09T17:42:57.712Z,2.30
2024-05-09T17:45:24.040Z,2.60
2024-05-09T17:47:50.345Z,2.47
2024-05-09T17:50:23.879Z,2.80
2024-05-09T17:52:54.031Z,2.40
2024-05-09T17:55:20.370Z,2.40
2024-05-09T17:57:46.756Z,2.50
2024-05-09T18:00:17.454Z,2.40
2024-05-09T18:02:47.876Z,2.50
2024-05-09T18:05:14.464Z,2.22
2024-05-09T18:07:40.953Z,2.50
2024-05-09T18:10:15.940Z,2.55
2024-05-09T18:12:48.362Z,2.90
2024-05-09T18:15:14.789Z,2.80
2024-05-09T18:17:42.084Z,2.60
2024-05-09T18:20:17.092Z,2.30
2024-05-09T18:22:46.167Z,2.40
2024-05-09T18:25:12.721Z,2.55
2024-05-09T18:27:39.571Z,2.40
2024-05-09T18:30:21.180Z,2.30
2024-05-09T18:32:54.480Z,2.60
2024-05-09T18:35:21.262Z,3.00
2024-05-09T18:37:47.692Z,2.60
2024-05-09T18:40:21.020Z,2.53
2024-05-09T18:42:54.742Z,2.72
2024-05-09T18:45:21.666Z,3.10
2024-05-09T18:47:48.323Z,2.95
2024-05-09T18:50:21.009Z,2.60
2024-05-09T18:52:55.366Z,2.37
2024-05-09T18:55:22.068Z,2.20
2024-05-09T18:57:48.628Z,2.20
2024-05-09T19:00:26.760Z,2.30
2024-05-09T19:03:00.337Z,2.00
2024-05-09T19:05:27.052Z,2.12
2024-05-09T19:07:53.492Z,2.17
2024-05-09T19:10:22.952Z,2.30
2024-05-09T19:12:52.521Z,2.10
2024-05-09T19:15:18.792Z,2.30
2024-05-09T19:17:46.299Z,2.20
2024-05-09T19:20:24.688Z,2.47
2024-05-09T19:22:56.073Z,2.30
2024-05-09T19:25:22.343Z,2.47
2024-05-09T19:27:49.001Z,2.40
2024-05-09T19:30:25.114Z,2.25
2024-05-09T19:33:00.596Z,2.30
2024-05-09T19:35:27.225Z,2.10
2024-05-09T19:37:53.668Z,2.10
2024-05-09T19:40:28.524Z,2.20
2024-05-09T19:42:58.472Z,2.20
2024-05-09T19:45:24.852Z,2.33
2024-05-09T19:47:51.337Z,2.40
2024-05-09T19:50:26.428Z,2.30
2024-05-09T19:52:59.275Z,2.20
2024-05-09T19:55:25.742Z,2.20
2024-05-09T19:57:52.265Z,2.55
2024-05-09T20:00:25.970Z,2.80
2024-05-09T20:02:55.936Z,2.70
2024-05-09T20:05:23.047Z,2.47
2024-05-09T20:07:49.582Z,2.58
2024-05-09T20:10:23.347Z,2.30
2024-05-09T20:12:53.053Z,2.55
2024-05-09T20:15:19.417Z,2.50
2024-05-09T20:17:45.848Z,2.20
2024-05-09T20:20:20.738Z,2.10
2024-05-09T20:22:55.029Z,1.90
2024-05-09T20:25:21.369Z,2.00
2024-05-09T20:27:47.747Z,2.20
2024-05-09T20:30:20.936Z,2.22
2024-05-09T20:32:51.891Z,2.10
2024-05-09T20:35:18.804Z,2.28
2024-05-09T20:37:45.246Z,2.22
2024-05-09T20:40:18.438Z,2.28
2024-05-09T20:42:52.173Z,2.30
2024-05-09T20:45:18.732Z,2.40
2024-05-09T20:47:45.124Z,2.47
2024-05-09T20:50:20.552Z,2.67
2024-05-09T20:52:55.430Z,2.75
2024-05-09T20:55:21.815Z,2.92
2024-05-09T20:57:48.129Z,3.03
2024-05-09T21:00:18.849Z,2.90
2024-05-09T21:02:49.151Z,2.62
2024-05-09T21:05:15.786Z,2.87
2024-05-09T21:07:42.225Z,2.92
2024-05-09T21:10:15.510Z,2.92
2024-05-09T21:12:46.010Z,2.70
2024-05-09T21:15:12.632Z,2.65
2024-05-09T21:17:39.332Z,2.83
2024-05-09T21:20:09.388Z,2.95
2024-05-09T21:22:42.732Z,3.00
2024-05-09T21:25:10.336Z,2.67
2024-05-09T21:27:37.098Z,2.67
2024-05-09T21:30:06.058Z,2.65
2024-05-09T21:32:34.380Z,2.30
2024-05-09T21:35:00.837Z,2.40
2024-05-09T21:37:27.462Z,2.50
2024-05-09T21:39:53.987Z,2.20
2024-05-09T21:42:20.586Z,2.15
2024-05-09T21:44:47.175Z,2.20
2024-05-09T21:47:13.447Z,2.10
2024-05-09T21:49:40.355Z,2.10
2024-05-09T21:52:07.107Z,2.20
2024-05-09T21:54:33.960Z,2.20
2024-05-09T21:57:00.572Z,2.12
2024-05-09T21:59:27.195Z,2.35
2024-05-09T22:01:53.499Z,2.20
2024-05-09T22:04:19.851Z,2.10
2024-05-09T22:06:46.251Z,2.20
2024-05-09T22:09:12.521Z,2.20
2024-05-09T22:11:39.021Z,2.30
2024-05-09T22:14:09.596Z,2.17
2024-05-09T22:16:40.608Z,2.22
2024-05-09T22:19:07.593Z,2.20
2024-05-09T22:21:34.210Z,2.50
2024-05-09T22:24:00.752Z,2.20
2024-05-09T22:26:27.157Z,2.28
2024-05-09T22:28:53.446Z,1.90
2024-05-09T22:31:20.057Z,2.10
2024-05-09T22:33:47.968Z,2.10
2024-05-09T22:36:15.506Z,2.20
2024-05-09T22:38:42.036Z,2.40
2024-05-09T22:41:08.874Z,2.40
2024-05-09T22:43:35.718Z,2.60
2024-05-09T22:46:02.619Z,2.30
2024-05-09T22:48:29.364Z,2.37
2024-05-09T22:50:56.026Z,2.28
2024-05-09T22:53:24.292Z,2.20
2024-05-09T22:55:50.796Z,2.30
2024-05-09T22:58:18.476Z,2.20
2024-05-09T23:00:45.078Z,2.28
2024-05-09T23:03:11.507Z,2.30
2024-05-09T23:05:37.965Z,2.40
2024-05-09T23:08:04.527Z,2.30
2024-05-09T23:10:36.171Z,2.25
2024-05-09T23:13:06.324Z,2.40
2024-05-09T23:15:33.560Z,2.30
2024-05-09T23:18:00.265Z,2.37
2024-05-09T23:20:36.062Z,2.50
2024-05-09T23:23:10.151Z,2.30
2024-05-09T23:25:37.901Z,2.30
2024-05-09T23:28:05.214Z,2.30
2024-05-09T23:30:37.255Z,2.10
2024-05-09T23:33:06.982Z,2.25
2024-05-09T23:35:33.781Z,2.10
2024-05-09T23:38:00.428Z,2.10
2024-05-09T23:40:37.308Z,2.10
2024-05-09T23:43:10.368Z,2.10
2024-05-09T23:45:37.315Z,2.10
2024-05-09T23:48:05.365Z,2.00
2024-05-09T23:50:36.185Z,2.22
2024-05-09T23:53:05.817Z,2.20
2024-05-09T23:55:32.815Z,2.10
2024-05-09T23:58:00.035Z,2.30
